sensor_id;sensor_type;location;lat;lon;timestamp;temperature;humidity
5743;DHT22;2896;53.500;10.020;2023-02-12T00:02:15;7.10;99.90
5743;DHT22;2896;53.500;10.020;2023-02-12T00:04:43;7.20;99.90
5743;DHT22;2896;53.500;10.020;2023-02-12T00:07:09;7.20;99.90
5743;DHT22;2896;53.500;10.020;2023-02-12T00:09:36;7.20;99.90
5743;DHT22;2896;53.500;10.020;2023-02-12T00:12:03;7.10;99.90
5743;DHT22;2896;53.500;10.020;2023-02-12T00:14:29;7.10;99.90
5743;DHT22;2896;53.500;10.020;2023-02-12T00:16:56;7.20;99.90
5743;DHT22;2896;53.500;10.020;2023-02-12T00:19:23;7.10;99.90
5743;DHT22;2896;53.500;10.020;2023-02-12T00:21:51;7.20;99.90
5743;DHT22;2896;53.500;10.020;2023-02-12T00:24:17;7.10;99.90
5743;DHT22;2896;53.500;10.020;2023-02-12T00:26:44;7.10;99.90
5743;DHT22;2896;53.500;10.020;2023-02-12T00:29:12;7.10;99.90
5743;DHT22;2896;53.500;10.020;2023-02-12T00:31:39;7.20;99.90
5743;DHT22;2896;53.500;10.020;2023-02-12T00:34:06;7.10;99.90
5743;DHT22;2896;53.500;10.020;2023-02-12T00:36:35;7.10;99.90
5743;DHT22;2896;53.500;10.020;2023-02-12T00:39:03;7.20;99.90
5743;DHT22;2896;53.500;10.020;2023-02-12T00:41:30;7.00;99.90
5743;DHT22;2896;53.500;10.020;2023-02-12T00:43:56;7.00;99.90
5743;DHT22;2896;53.500;10.020;2023-02-12T00:46:23;7.10;99.90
5743;DHT22;2896;53.500;10.020;2023-02-12T00:48:49;7.00;99.90
5743;DHT22;2896;53.500;10.020;2023-02-12T00:51:16;7.00;99.90
5743;DHT22;2896;53.500;10.020;2023-02-12T00:53:43;7.10;99.90
5743;DHT22;2896;53.500;10.020;2023-02-12T00:56:10;7.10;99.90
5743;DHT22;2896;53.500;10.020;2023-02-12T00:58:37;7.00;99.90
5743;DHT22;2896;53.500;10.020;2023-02-12T01:01:04;7.00;99.90
5743;DHT22;2896;53.500;10.020;2023-02-12T01:03:30;7.10;99.90
5743;DHT22;2896;53.500;10.020;2023-02-12T01:05:57;6.90;99.90
5743;DHT22;2896;53.500;10.020;2023-02-12T01:08:24;7.00;99.90
5743;DHT22;2896;53.500;10.020;2023-02-12T01:10:55;7.00;99.90
5743;DHT22;2896;53.500;10.020;2023-02-12T01:13:24;7.10;99.90
5743;DHT22;2896;53.500;10.020;2023-02-12T01:16:01;7.00;99.90
5743;DHT22;2896;53.500;10.020;2023-02-12T01:18:28;7.00;99.90
5743;DHT22;2896;53.500;10.020;2023-02-12T01:20:55;7.00;99.90
5743;DHT22;2896;53.500;10.020;2023-02-12T01:23:23;7.00;99.90
5743;DHT22;2896;53.500;10.020;2023-02-12T01:25:50;7.00;99.90
5743;DHT22;2896;53.500;10.020;2023-02-12T01:28:16;7.00;99.90
5743;DHT22;2896;53.500;10.020;2023-02-12T01:30:44;7.00;99.90
5743;DHT22;2896;53.500;10.020;2023-02-12T01:33:11;7.00;99.90
5743;DHT22;2896;53.500;10.020;2023-02-12T01:35:38;7.00;99.90
5743;DHT22;2896;53.500;10.020;2023-02-12T01:38:04;7.10;99.90
5743;DHT22;2896;53.500;10.020;2023-02-12T01:40:31;7.00;99.90
5743;DHT22;2896;53.500;10.020;2023-02-12T01:43:00;6.90;99.90
5743;DHT22;2896;53.500;10.020;2023-02-12T01:45:50;6.80;99.90
5743;DHT22;2896;53.500;10.020;2023-02-12T01:48:20;6.80;99.90
5743;DHT22;2896;53.500;10.020;2023-02-12T01:50:48;8.60;99.90
5743;DHT22;2896;53.500;10.020;2023-02-12T01:53:18;6.80;99.90
5743;DHT22;2896;53.500;10.020;2023-02-12T01:55:51;6.80;99.90
5743;DHT22;2896;53.500;10.020;2023-02-12T01:58:19;6.90;99.90
5743;DHT22;2896;53.500;10.020;2023-02-12T02:00:46;6.80;99.90
5743;DHT22;2896;53.500;10.020;2023-02-12T02:03:14;6.80;99.90
5743;DHT22;2896;53.500;10.020;2023-02-12T02:05:45;6.90;99.90
5743;DHT22;2896;53.500;10.020;2023-02-12T02:08:13;6.70;99.90
5743;DHT22;2896;53.500;10.020;2023-02-12T02:10:40;6.70;99.90
5743;DHT22;2896;53.500;10.020;2023-02-12T02:13:07;6.70;99.90
5743;DHT22;2896;53.500;10.020;2023-02-12T02:15:55;6.60;99.90
5743;DHT22;2896;53.500;10.020;2023-02-12T02:18:26;6.70;99.90
5743;DHT22;2896;53.500;10.020;2023-02-12T02:21:29;6.60;99.90
5743;DHT22;2896;53.500;10.020;2023-02-12T02:24:28;6.60;99.90
5743;DHT22;2896;53.500;10.020;2023-02-12T02:27:23;6.70;99.90
5743;DHT22;2896;53.500;10.020;2023-02-12T02:30:31;6.70;99.90
5743;DHT22;2896;53.500;10.020;2023-02-12T02:33:19;6.70;99.90
5743;DHT22;2896;53.500;10.020;2023-02-12T02:35:52;6.70;99.90
5743;DHT22;2896;53.500;10.020;2023-02-12T02:38:24;6.60;99.90
5743;DHT22;2896;53.500;10.020;2023-02-12T02:41:00;6.70;99.90
5743;DHT22;2896;53.500;10.020;2023-02-12T02:43:30;6.80;99.90
5743;DHT22;2896;53.500;10.020;2023-02-12T02:46:02;6.80;99.90
5743;DHT22;2896;53.500;10.020;2023-02-12T02:48:33;6.70;99.90
5743;DHT22;2896;53.500;10.020;2023-02-12T02:51:05;6.70;99.90
5743;DHT22;2896;53.500;10.020;2023-02-12T02:53:37;6.70;99.90
5743;DHT22;2896;53.500;10.020;2023-02-12T02:56:07;6.70;99.90
5743;DHT22;2896;53.500;10.020;2023-02-12T02:58:41;6.60;99.90
5743;DHT22;2896;53.500;10.020;2023-02-12T03:01:12;6.70;99.90
5743;DHT22;2896;53.500;10.020;2023-02-12T03:03:45;6.60;99.90
5743;DHT22;2896;53.500;10.020;2023-02-12T03:06:21;6.60;99.90
5743;DHT22;2896;53.500;10.020;2023-02-12T03:08:52;6.60;99.90
5743;DHT22;2896;53.500;10.020;2023-02-12T03:11:24;6.60;99.90
5743;DHT22;2896;53.500;10.020;2023-02-12T03:13:56;6.60;99.90
5743;DHT22;2896;53.500;10.020;2023-02-12T03:16:27;6.40;99.90
5743;DHT22;2896;53.500;10.020;2023-02-12T03:18:58;6.60;99.90
5743;DHT22;2896;53.500;10.020;2023-02-12T03:21:32;6.60;99.90
5743;DHT22;2896;53.500;10.020;2023-02-12T03:24:06;6.60;99.90
5743;DHT22;2896;53.500;10.020;2023-02-12T03:26:41;6.60;99.90
5743;DHT22;2896;53.500;10.020;2023-02-12T03:29:09;6.70;99.90
5743;DHT22;2896;53.500;10.020;2023-02-12T03:31:45;6.60;99.90
5743;DHT22;2896;53.500;10.020;2023-02-12T03:34:23;6.60;99.90
5743;DHT22;2896;53.500;10.020;2023-02-12T03:36:55;6.60;99.90
5743;DHT22;2896;53.500;10.020;2023-02-12T03:39:28;6.60;99.90
5743;DHT22;2896;53.500;10.020;2023-02-12T03:42:00;6.50;99.90
5743;DHT22;2896;53.500;10.020;2023-02-12T03:44:47;6.70;99.90
5743;DHT22;2896;53.500;10.020;2023-02-12T03:47:21;6.60;99.90
5743;DHT22;2896;53.500;10.020;2023-02-12T03:49:58;6.50;99.90
5743;DHT22;2896;53.500;10.020;2023-02-12T03:52:28;6.50;99.90
5743;DHT22;2896;53.500;10.020;2023-02-12T03:54:55;6.60;99.90
5743;DHT22;2896;53.500;10.020;2023-02-12T03:57:25;6.50;99.90
5743;DHT22;2896;53.500;10.020;2023-02-12T03:59:55;6.60;99.90
5743;DHT22;2896;53.500;10.020;2023-02-12T04:02:24;6.60;99.90
5743;DHT22;2896;53.500;10.020;2023-02-12T04:04:51;6.60;99.90
5743;DHT22;2896;53.500;10.020;2023-02-12T04:07:17;6.60;99.90
5743;DHT22;2896;53.500;10.020;2023-02-12T04:09:44;6.50;99.90
5743;DHT22;2896;53.500;10.020;2023-02-12T04:12:25;6.50;99.90
5743;DHT22;2896;53.500;10.020;2023-02-12T04:15:04;6.50;99.90
5743;DHT22;2896;53.500;10.020;2023-02-12T04:17:40;6.50;99.90
5743;DHT22;2896;53.500;10.020;2023-02-12T04:20:16;6.50;99.90
5743;DHT22;2896;53.500;10.020;2023-02-12T04:22:53;6.50;99.90
5743;DHT22;2896;53.500;10.020;2023-02-12T04:25:31;6.50;99.90
5743;DHT22;2896;53.500;10.020;2023-02-12T04:28:09;6.60;99.90
5743;DHT22;2896;53.500;10.020;2023-02-12T04:30:43;6.60;99.90
5743;DHT22;2896;53.500;10.020;2023-02-12T04:33:17;6.60;99.90
5743;DHT22;2896;53.500;10.020;2023-02-12T04:35:49;6.60;99.90
5743;DHT22;2896;53.500;10.020;2023-02-12T04:38:20;6.60;99.90
5743;DHT22;2896;53.500;10.020;2023-02-12T04:40:48;6.60;99.90
5743;DHT22;2896;53.500;10.020;2023-02-12T04:43:25;6.60;99.90
5743;DHT22;2896;53.500;10.020;2023-02-12T04:45:52;6.60;99.90
5743;DHT22;2896;53.500;10.020;2023-02-12T04:48:20;6.60;99.90
5743;DHT22;2896;53.500;10.020;2023-02-12T04:50:47;6.60;99.90
5743;DHT22;2896;53.500;10.020;2023-02-12T04:53:13;6.50;99.90
5743;DHT22;2896;53.500;10.020;2023-02-12T04:55:40;6.60;99.90
5743;DHT22;2896;53.500;10.020;2023-02-12T04:58:07;6.60;99.90
5743;DHT22;2896;53.500;10.020;2023-02-12T05:00:34;6.60;99.90
5743;DHT22;2896;53.500;10.020;2023-02-12T05:03:00;6.60;99.90
5743;DHT22;2896;53.500;10.020;2023-02-12T05:05:28;6.60;99.90
5743;DHT22;2896;53.500;10.020;2023-02-12T05:07:55;6.70;99.90
5743;DHT22;2896;53.500;10.020;2023-02-12T05:10:22;6.60;99.90
5743;DHT22;2896;53.500;10.020;2023-02-12T05:12:50;6.70;99.90
5743;DHT22;2896;53.500;10.020;2023-02-12T05:15:17;6.60;99.90
5743;DHT22;2896;53.500;10.020;2023-02-12T05:17:44;6.60;99.90
5743;DHT22;2896;53.500;10.020;2023-02-12T05:20:12;6.70;99.90
5743;DHT22;2896;53.500;10.020;2023-02-12T05:22:40;6.70;99.90
5743;DHT22;2896;53.500;10.020;2023-02-12T05:25:07;6.60;99.90
5743;DHT22;2896;53.500;10.020;2023-02-12T05:27:33;6.60;99.90
5743;DHT22;2896;53.500;10.020;2023-02-12T05:30:00;6.60;99.90
5743;DHT22;2896;53.500;10.020;2023-02-12T05:32:26;6.70;99.90
5743;DHT22;2896;53.500;10.020;2023-02-12T05:34:53;6.70;99.90
5743;DHT22;2896;53.500;10.020;2023-02-12T05:37:20;6.60;99.90
5743;DHT22;2896;53.500;10.020;2023-02-12T05:39:49;6.60;99.90
5743;DHT22;2896;53.500;10.020;2023-02-12T05:42:15;6.60;99.90
5743;DHT22;2896;53.500;10.020;2023-02-12T05:44:42;6.60;99.90
5743;DHT22;2896;53.500;10.020;2023-02-12T05:47:09;6.70;99.90
5743;DHT22;2896;53.500;10.020;2023-02-12T05:49:36;6.70;99.90
5743;DHT22;2896;53.500;10.020;2023-02-12T05:52:02;6.70;99.90
5743;DHT22;2896;53.500;10.020;2023-02-12T05:54:29;6.70;99.90
5743;DHT22;2896;53.500;10.020;2023-02-12T05:56:57;6.70;99.90
5743;DHT22;2896;53.500;10.020;2023-02-12T05:59:24;6.70;99.90
5743;DHT22;2896;53.500;10.020;2023-02-12T06:01:51;6.10;99.90
5743;DHT22;2896;53.500;10.020;2023-02-12T06:04:19;6.80;99.90
5743;DHT22;2896;53.500;10.020;2023-02-12T06:06:47;6.70;99.90
5743;DHT22;2896;53.500;10.020;2023-02-12T06:09:14;6.80;99.90
5743;DHT22;2896;53.500;10.020;2023-02-12T06:11:41;6.80;99.90
5743;DHT22;2896;53.500;10.020;2023-02-12T06:14:12;6.80;99.90
5743;DHT22;2896;53.500;10.020;2023-02-12T06:16:39;6.80;99.90
5743;DHT22;2896;53.500;10.020;2023-02-12T06:19:06;6.70;99.90
5743;DHT22;2896;53.500;10.020;2023-02-12T06:21:33;6.90;99.90
5743;DHT22;2896;53.500;10.020;2023-02-12T06:24:00;6.90;99.90
5743;DHT22;2896;53.500;10.020;2023-02-12T06:26:27;6.80;99.90
5743;DHT22;2896;53.500;10.020;2023-02-12T06:28:54;6.80;99.90
5743;DHT22;2896;53.500;10.020;2023-02-12T06:31:23;6.80;99.90
5743;DHT22;2896;53.500;10.020;2023-02-12T06:33:51;6.80;99.90
5743;DHT22;2896;53.500;10.020;2023-02-12T06:36:18;6.80;99.90
5743;DHT22;2896;53.500;10.020;2023-02-12T06:38:45;6.70;99.90
5743;DHT22;2896;53.500;10.020;2023-02-12T06:41:12;6.80;99.90
5743;DHT22;2896;53.500;10.020;2023-02-12T06:43:39;6.90;99.90
5743;DHT22;2896;53.500;10.020;2023-02-12T06:46:06;6.90;99.90
5743;DHT22;2896;53.500;10.020;2023-02-12T06:48:35;6.80;99.90
5743;DHT22;2896;53.500;10.020;2023-02-12T06:51:06;6.80;99.90
5743;DHT22;2896;53.500;10.020;2023-02-12T06:53:33;6.70;99.90
5743;DHT22;2896;53.500;10.020;2023-02-12T06:56:01;6.80;99.90
5743;DHT22;2896;53.500;10.020;2023-02-12T06:58:27;7.00;99.90
5743;DHT22;2896;53.500;10.020;2023-02-12T07:00:54;6.90;99.90
5743;DHT22;2896;53.500;10.020;2023-02-12T07:03:21;6.90;99.90
5743;DHT22;2896;53.500;10.020;2023-02-12T07:05:49;6.90;99.90
5743;DHT22;2896;53.500;10.020;2023-02-12T07:08:15;7.00;99.90
5743;DHT22;2896;53.500;10.020;2023-02-12T07:10:42;7.00;99.90
5743;DHT22;2896;53.500;10.020;2023-02-12T07:13:13;7.00;99.90
5743;DHT22;2896;53.500;10.020;2023-02-12T07:15:39;6.90;99.90
5743;DHT22;2896;53.500;10.020;2023-02-12T07:18:06;7.00;99.90
5743;DHT22;2896;53.500;10.020;2023-02-12T07:20:32;7.00;99.90
5743;DHT22;2896;53.500;10.020;2023-02-12T07:23:00;7.00;99.90
5743;DHT22;2896;53.500;10.020;2023-02-12T07:25:27;7.00;99.90
5743;DHT22;2896;53.500;10.020;2023-02-12T07:27:54;7.10;99.90
5743;DHT22;2896;53.500;10.020;2023-02-12T07:30:20;7.00;99.90
5743;DHT22;2896;53.500;10.020;2023-02-12T07:32:47;7.20;99.90
5743;DHT22;2896;53.500;10.020;2023-02-12T07:35:13;7.20;99.90
5743;DHT22;2896;53.500;10.020;2023-02-12T07:37:40;7.20;99.90
5743;DHT22;2896;53.500;10.020;2023-02-12T07:40:09;7.20;99.90
5743;DHT22;2896;53.500;10.020;2023-02-12T07:42:36;7.20;99.90
5743;DHT22;2896;53.500;10.020;2023-02-12T07:45:03;7.10;99.90
5743;DHT22;2896;53.500;10.020;2023-02-12T07:47:30;7.20;99.90
5743;DHT22;2896;53.500;10.020;2023-02-12T07:49:57;7.20;99.90
5743;DHT22;2896;53.500;10.020;2023-02-12T07:52:23;7.10;99.90
5743;DHT22;2896;53.500;10.020;2023-02-12T07:54:50;7.20;99.90
5743;DHT22;2896;53.500;10.020;2023-02-12T07:57:18;7.30;99.90
5743;DHT22;2896;53.500;10.020;2023-02-12T07:59:44;7.30;99.90
5743;DHT22;2896;53.500;10.020;2023-02-12T08:02:11;7.30;99.90
5743;DHT22;2896;53.500;10.020;2023-02-12T08:04:38;7.30;99.90
5743;DHT22;2896;53.500;10.020;2023-02-12T08:07:04;7.40;99.90
5743;DHT22;2896;53.500;10.020;2023-02-12T08:09:31;7.40;99.90
5743;DHT22;2896;53.500;10.020;2023-02-12T08:11:57;7.50;99.90
5743;DHT22;2896;53.500;10.020;2023-02-12T08:14:26;7.50;99.90
5743;DHT22;2896;53.500;10.020;2023-02-12T08:16:53;7.50;99.90
5743;DHT22;2896;53.500;10.020;2023-02-12T08:19:20;7.50;99.90
5743;DHT22;2896;53.500;10.020;2023-02-12T08:21:48;7.50;99.90
5743;DHT22;2896;53.500;10.020;2023-02-12T08:24:15;7.50;99.90
5743;DHT22;2896;53.500;10.020;2023-02-12T08:26:41;7.50;99.90
5743;DHT22;2896;53.500;10.020;2023-02-12T08:29:10;7.60;99.90
5743;DHT22;2896;53.500;10.020;2023-02-12T08:31:41;7.60;99.90
5743;DHT22;2896;53.500;10.020;2023-02-12T08:34:15;7.60;99.90
5743;DHT22;2896;53.500;10.020;2023-02-12T08:36:42;7.60;99.90
5743;DHT22;2896;53.500;10.020;2023-02-12T08:39:09;7.70;99.90
5743;DHT22;2896;53.500;10.020;2023-02-12T08:41:36;7.60;99.90
5743;DHT22;2896;53.500;10.020;2023-02-12T08:44:04;7.80;99.90
5743;DHT22;2896;53.500;10.020;2023-02-12T08:46:32;7.70;99.90
5743;DHT22;2896;53.500;10.020;2023-02-12T08:49:02;7.80;99.90
5743;DHT22;2896;53.500;10.020;2023-02-12T08:51:30;7.70;99.90
5743;DHT22;2896;53.500;10.020;2023-02-12T08:54:00;7.80;99.90
5743;DHT22;2896;53.500;10.020;2023-02-12T08:56:28;7.80;99.90
5743;DHT22;2896;53.500;10.020;2023-02-12T08:58:55;7.80;99.90
5743;DHT22;2896;53.500;10.020;2023-02-12T09:01:24;7.80;99.90
5743;DHT22;2896;53.500;10.020;2023-02-12T09:03:51;7.80;99.90
5743;DHT22;2896;53.500;10.020;2023-02-12T09:06:22;7.80;99.90
5743;DHT22;2896;53.500;10.020;2023-02-12T09:08:49;7.90;99.90
5743;DHT22;2896;53.500;10.020;2023-02-12T09:11:17;7.90;99.90
5743;DHT22;2896;53.500;10.020;2023-02-12T09:13:45;7.90;99.90
5743;DHT22;2896;53.500;10.020;2023-02-12T09:16:13;7.90;99.90
5743;DHT22;2896;53.500;10.020;2023-02-12T09:18:40;7.90;99.90
5743;DHT22;2896;53.500;10.020;2023-02-12T09:21:08;8.10;99.90
5743;DHT22;2896;53.500;10.020;2023-02-12T09:23:37;8.10;99.90
5743;DHT22;2896;53.500;10.020;2023-02-12T09:26:04;8.10;99.90
5743;DHT22;2896;53.500;10.020;2023-02-12T09:28:31;8.10;99.90
5743;DHT22;2896;53.500;10.020;2023-02-12T09:30:58;8.20;99.90
5743;DHT22;2896;53.500;10.020;2023-02-12T09:33:24;8.20;99.90
5743;DHT22;2896;53.500;10.020;2023-02-12T09:35:51;8.20;99.90
5743;DHT22;2896;53.500;10.020;2023-02-12T09:38:18;8.30;99.90
5743;DHT22;2896;53.500;10.020;2023-02-12T09:40:51;8.30;99.90
5743;DHT22;2896;53.500;10.020;2023-02-12T09:43:29;8.40;99.90
5743;DHT22;2896;53.500;10.020;2023-02-12T09:46:02;8.40;99.90
5743;DHT22;2896;53.500;10.020;2023-02-12T09:48:47;8.50;99.90
5743;DHT22;2896;53.500;10.020;2023-02-12T09:51:19;8.30;99.90
5743;DHT22;2896;53.500;10.020;2023-02-12T09:53:47;8.40;99.90
5743;DHT22;2896;53.500;10.020;2023-02-12T09:56:17;8.50;99.90
5743;DHT22;2896;53.500;10.020;2023-02-12T09:58:50;8.50;99.90
5743;DHT22;2896;53.500;10.020;2023-02-12T10:01:19;8.60;99.90
5743;DHT22;2896;53.500;10.020;2023-02-12T10:03:48;8.60;99.90
5743;DHT22;2896;53.500;10.020;2023-02-12T10:06:18;8.70;99.90
5743;DHT22;2896;53.500;10.020;2023-02-12T10:08:59;8.90;99.90
5743;DHT22;2896;53.500;10.020;2023-02-12T10:11:48;8.90;99.90
5743;DHT22;2896;53.500;10.020;2023-02-12T10:14:43;8.70;99.90
5743;DHT22;2896;53.500;10.020;2023-02-12T10:17:22;8.90;99.90
5743;DHT22;2896;53.500;10.020;2023-02-12T10:20:10;8.90;99.90
5743;DHT22;2896;53.500;10.020;2023-02-12T10:22:45;8.90;99.90
5743;DHT22;2896;53.500;10.020;2023-02-12T10:25:23;8.90;99.90
5743;DHT22;2896;53.500;10.020;2023-02-12T10:27:54;9.00;99.90
5743;DHT22;2896;53.500;10.020;2023-02-12T10:30:24;9.00;99.90
5743;DHT22;2896;53.500;10.020;2023-02-12T10:32:55;8.90;99.90
5743;DHT22;2896;53.500;10.020;2023-02-12T10:35:25;8.20;99.90
5743;DHT22;2896;53.500;10.020;2023-02-12T10:37:56;9.20;99.90
5743;DHT22;2896;53.500;10.020;2023-02-12T10:40:26;9.30;99.90
5743;DHT22;2896;53.500;10.020;2023-02-12T10:42:56;9.00;99.90
5743;DHT22;2896;53.500;10.020;2023-02-12T10:45:26;9.20;99.90
5743;DHT22;2896;53.500;10.020;2023-02-12T10:48:03;9.40;99.90
5743;DHT22;2896;53.500;10.020;2023-02-12T10:50:39;9.10;99.90
5743;DHT22;2896;53.500;10.020;2023-02-12T10:53:14;9.20;99.90
5743;DHT22;2896;53.500;10.020;2023-02-12T10:55:42;9.30;99.90
5743;DHT22;2896;53.500;10.020;2023-02-12T10:58:18;9.40;99.90
5743;DHT22;2896;53.500;10.020;2023-02-12T11:00:45;9.40;99.90
5743;DHT22;2896;53.500;10.020;2023-02-12T11:03:22;9.30;99.90
5743;DHT22;2896;53.500;10.020;2023-02-12T11:05:52;9.30;99.90
5743;DHT22;2896;53.500;10.020;2023-02-12T11:08:29;9.10;99.90
5743;DHT22;2896;53.500;10.020;2023-02-12T11:11:03;9.00;99.90
5743;DHT22;2896;53.500;10.020;2023-02-12T11:13:31;9.10;99.90
5743;DHT22;2896;53.500;10.020;2023-02-12T11:15:58;9.10;99.90
5743;DHT22;2896;53.500;10.020;2023-02-12T11:18:27;9.20;99.90
5743;DHT22;2896;53.500;10.020;2023-02-12T11:20:59;9.10;99.90
5743;DHT22;2896;53.500;10.020;2023-02-12T11:23:28;9.20;99.90
5743;DHT22;2896;53.500;10.020;2023-02-12T11:26:00;11.10;99.90
5743;DHT22;2896;53.500;10.020;2023-02-12T11:28:27;9.90;99.90
5743;DHT22;2896;53.500;10.020;2023-02-12T11:30:57;9.20;99.90
5743;DHT22;2896;53.500;10.020;2023-02-12T11:33:30;9.20;99.90
5743;DHT22;2896;53.500;10.020;2023-02-12T11:35:59;9.20;99.90
5743;DHT22;2896;53.500;10.020;2023-02-12T11:38:30;9.30;99.90
5743;DHT22;2896;53.500;10.020;2023-02-12T11:41:01;9.30;99.90
5743;DHT22;2896;53.500;10.020;2023-02-12T11:43:30;9.30;99.90
5743;DHT22;2896;53.500;10.020;2023-02-12T11:45:59;9.30;99.90
5743;DHT22;2896;53.500;10.020;2023-02-12T11:48:28;9.30;99.90
5743;DHT22;2896;53.500;10.020;2023-02-12T11:50:57;9.40;99.90
5743;DHT22;2896;53.500;10.020;2023-02-12T11:53:29;9.40;99.90
5743;DHT22;2896;53.500;10.020;2023-02-12T11:55:58;9.40;99.90
5743;DHT22;2896;53.500;10.020;2023-02-12T11:58:26;9.40;99.90
5743;DHT22;2896;53.500;10.020;2023-02-12T12:01:00;9.50;99.90
5743;DHT22;2896;53.500;10.020;2023-02-12T12:03:30;9.50;99.90
5743;DHT22;2896;53.500;10.020;2023-02-12T12:06:04;9.50;99.90
5743;DHT22;2896;53.500;10.020;2023-02-12T12:08:35;9.60;99.90
5743;DHT22;2896;53.500;10.020;2023-02-12T12:11:10;9.50;99.90
5743;DHT22;2896;53.500;10.020;2023-02-12T12:13:47;9.50;99.90
5743;DHT22;2896;53.500;10.020;2023-02-12T12:16:21;9.40;99.90
5743;DHT22;2896;53.500;10.020;2023-02-12T12:19:13;9.50;99.90
5743;DHT22;2896;53.500;10.020;2023-02-12T12:22:03;9.30;99.90
5743;DHT22;2896;53.500;10.020;2023-02-12T12:24:38;9.40;99.90
5743;DHT22;2896;53.500;10.020;2023-02-12T12:27:14;9.40;99.90
5743;DHT22;2896;53.500;10.020;2023-02-12T12:30:10;9.50;99.90
5743;DHT22;2896;53.500;10.020;2023-02-12T12:32:41;9.50;99.90
5743;DHT22;2896;53.500;10.020;2023-02-12T12:35:20;9.60;99.90
5743;DHT22;2896;53.500;10.020;2023-02-12T12:37:53;9.60;99.90
5743;DHT22;2896;53.500;10.020;2023-02-12T12:40:37;9.60;99.90
5743;DHT22;2896;53.500;10.020;2023-02-12T12:43:11;9.60;99.90
5743;DHT22;2896;53.500;10.020;2023-02-12T12:46:09;9.80;99.90
5743;DHT22;2896;53.500;10.020;2023-02-12T12:48:51;9.70;99.90
5743;DHT22;2896;53.500;10.020;2023-02-12T12:51:34;9.50;99.90
5743;DHT22;2896;53.500;10.020;2023-02-12T12:54:12;9.60;99.90
5743;DHT22;2896;53.500;10.020;2023-02-12T12:56:49;9.60;99.90
5743;DHT22;2896;53.500;10.020;2023-02-12T12:59:40;9.70;99.90
5743;DHT22;2896;53.500;10.020;2023-02-12T13:02:38;9.90;99.90
5743;DHT22;2896;53.500;10.020;2023-02-12T13:05:32;9.90;99.90
5743;DHT22;2896;53.500;10.020;2023-02-12T13:08:09;10.00;99.90
5743;DHT22;2896;53.500;10.020;2023-02-12T13:10:46;10.20;99.90
5743;DHT22;2896;53.500;10.020;2023-02-12T13:13:21;10.20;99.90
5743;DHT22;2896;53.500;10.020;2023-02-12T13:15:56;10.10;99.90
5743;DHT22;2896;53.500;10.020;2023-02-12T13:18:33;10.10;99.90
5743;DHT22;2896;53.500;10.020;2023-02-12T13:21:09;10.00;99.90
5743;DHT22;2896;53.500;10.020;2023-02-12T13:23:43;9.90;99.90
5743;DHT22;2896;53.500;10.020;2023-02-12T13:26:15;9.90;99.90
5743;DHT22;2896;53.500;10.020;2023-02-12T13:28:47;9.80;99.90
5743;DHT22;2896;53.500;10.020;2023-02-12T13:31:18;9.90;99.90
5743;DHT22;2896;53.500;10.020;2023-02-12T13:33:48;9.90;99.90
5743;DHT22;2896;53.500;10.020;2023-02-12T13:36:18;9.70;99.90
5743;DHT22;2896;53.500;10.020;2023-02-12T13:38:48;9.70;99.90
5743;DHT22;2896;53.500;10.020;2023-02-12T13:41:17;9.50;99.90
5743;DHT22;2896;53.500;10.020;2023-02-12T13:43:56;9.50;99.90
5743;DHT22;2896;53.500;10.020;2023-02-12T13:46:33;9.60;99.90
5743;DHT22;2896;53.500;10.020;2023-02-12T13:49:09;9.50;99.90
5743;DHT22;2896;53.500;10.020;2023-02-12T13:51:43;9.60;99.90
5743;DHT22;2896;53.500;10.020;2023-02-12T13:54:20;9.60;99.90
5743;DHT22;2896;53.500;10.020;2023-02-12T13:56:49;9.50;99.90
5743;DHT22;2896;53.500;10.020;2023-02-12T13:59:42;9.50;99.90
5743;DHT22;2896;53.500;10.020;2023-02-12T14:02:43;9.50;99.90
5743;DHT22;2896;53.500;10.020;2023-02-12T14:05:29;9.60;99.90
5743;DHT22;2896;53.500;10.020;2023-02-12T14:08:00;9.50;99.90
5743;DHT22;2896;53.500;10.020;2023-02-12T14:10:30;9.50;99.90
5743;DHT22;2896;53.500;10.020;2023-02-12T14:13:18;9.40;99.90
5743;DHT22;2896;53.500;10.020;2023-02-12T14:15:48;9.50;99.90
5743;DHT22;2896;53.500;10.020;2023-02-12T14:18:31;9.40;99.90
5743;DHT22;2896;53.500;10.020;2023-02-12T14:24:49;9.40;99.90
5743;DHT22;2896;53.500;10.020;2023-02-12T14:27:40;9.50;99.90
5743;DHT22;2896;53.500;10.020;2023-02-12T14:30:25;9.30;99.90
5743;DHT22;2896;53.500;10.020;2023-02-12T14:33:08;9.30;99.90
5743;DHT22;2896;53.500;10.020;2023-02-12T14:35:36;9.30;99.90
5743;DHT22;2896;53.500;10.020;2023-02-12T14:41:23;9.20;99.90
5743;DHT22;2896;53.500;10.020;2023-02-12T14:44:43;9.20;99.90
5743;DHT22;2896;53.500;10.020;2023-02-12T14:50:15;9.10;99.90
5743;DHT22;2896;53.500;10.020;2023-02-12T14:52:49;9.10;99.90
5743;DHT22;2896;53.500;10.020;2023-02-12T14:55:25;9.10;99.90
5743;DHT22;2896;53.500;10.020;2023-02-12T14:58:04;9.00;99.90
5743;DHT22;2896;53.500;10.020;2023-02-12T15:00:34;9.00;99.90
5743;DHT22;2896;53.500;10.020;2023-02-12T15:03:12;9.00;99.90
5743;DHT22;2896;53.500;10.020;2023-02-12T15:05:45;9.00;99.90
5743;DHT22;2896;53.500;10.020;2023-02-12T15:08:20;9.00;99.90
5743;DHT22;2896;53.500;10.020;2023-02-12T15:10:51;8.90;99.90
5743;DHT22;2896;53.500;10.020;2023-02-12T15:13:25;8.90;99.90
5743;DHT22;2896;53.500;10.020;2023-02-12T15:15:57;8.90;99.90
5743;DHT22;2896;53.500;10.020;2023-02-12T15:18:28;8.80;99.90
5743;DHT22;2896;53.500;10.020;2023-02-12T15:21:00;8.80;99.90
5743;DHT22;2896;53.500;10.020;2023-02-12T15:23:33;8.70;99.90
5743;DHT22;2896;53.500;10.020;2023-02-12T15:26:01;8.70;99.90
5743;DHT22;2896;53.500;10.020;2023-02-12T15:28:31;8.80;99.90
5743;DHT22;2896;53.500;10.020;2023-02-12T15:31:02;8.80;99.90
5743;DHT22;2896;53.500;10.020;2023-02-12T15:33:32;8.70;99.90
5743;DHT22;2896;53.500;10.020;2023-02-12T15:36:00;8.80;99.90
5743;DHT22;2896;53.500;10.020;2023-02-12T15:38:30;8.70;99.90
5743;DHT22;2896;53.500;10.020;2023-02-12T15:40:59;8.70;99.90
5743;DHT22;2896;53.500;10.020;2023-02-12T15:43:28;8.70;99.90
5743;DHT22;2896;53.500;10.020;2023-02-12T15:45:57;8.70;99.90
5743;DHT22;2896;53.500;10.020;2023-02-12T15:48:29;8.70;99.90
5743;DHT22;2896;53.500;10.020;2023-02-12T15:51:06;8.60;99.90
5743;DHT22;2896;53.500;10.020;2023-02-12T15:53:34;8.50;99.90
5743;DHT22;2896;53.500;10.020;2023-02-12T15:56:02;8.60;99.90
5743;DHT22;2896;53.500;10.020;2023-02-12T15:58:31;8.50;99.90
5743;DHT22;2896;53.500;10.020;2023-02-12T16:01:04;8.50;99.90
5743;DHT22;2896;53.500;10.020;2023-02-12T16:03:33;8.50;99.90
5743;DHT22;2896;53.500;10.020;2023-02-12T16:06:02;8.40;99.90
5743;DHT22;2896;53.500;10.020;2023-02-12T16:08:31;8.40;99.90
5743;DHT22;2896;53.500;10.020;2023-02-12T16:11:01;8.40;99.90
5743;DHT22;2896;53.500;10.020;2023-02-12T16:13:39;8.40;99.90
5743;DHT22;2896;53.500;10.020;2023-02-12T16:16:19;8.30;99.90
5743;DHT22;2896;53.500;10.020;2023-02-12T16:19:04;8.30;99.90
5743;DHT22;2896;53.500;10.020;2023-02-12T16:21:33;8.40;99.90
5743;DHT22;2896;53.500;10.020;2023-02-12T16:24:00;8.30;99.90
5743;DHT22;2896;53.500;10.020;2023-02-12T16:26:27;8.20;99.90
5743;DHT22;2896;53.500;10.020;2023-02-12T16:28:55;8.20;99.90
5743;DHT22;2896;53.500;10.020;2023-02-12T16:31:26;8.20;99.90
5743;DHT22;2896;53.500;10.020;2023-02-12T16:33:54;8.20;99.90
5743;DHT22;2896;53.500;10.020;2023-02-12T16:36:29;8.20;99.90
5743;DHT22;2896;53.500;10.020;2023-02-12T16:38:58;8.20;99.90
5743;DHT22;2896;53.500;10.020;2023-02-12T16:41:26;8.10;99.90